Time;durP1;ratioP1;P1;durP2;ratioP2;P2;SDS_P1;SDS_P2;PMS_P1;PMS_P2;Temp;Humidity;BMP_temperature;BMP_pressure;BME280_temperature;BME280_humidity;BME280_pressure;Samples;Min_cycle;Max_cycle;Signal;HPM_P1;HPM_P2
2021/12/14 00:01:23;;;;;;;5.30;3.33;;;10.50;99.10;;;;;;5013377;28;20443;-70
2021/12/14 00:03:53;;;;;;;6.73;4.17;;;10.60;99.20;;;;;;5013366;28;20443;-70
2021/12/14 00:06:24;;;;;;;5.33;4.30;;;10.60;99.20;;;;;;5013315;28;20451;-70
2021/12/14 00:08:55;;;;;;;3.77;3.47;;;10.50;99.20;;;;;;5013279;28;20529;-70
2021/12/14 00:11:34;;;;;;;11.27;4.00;;;10.60;99.20;;;;;;5013023;28;21014;-70
2021/12/14 00:14:15;;;;;;;4.17;3.57;;;10.50;99.10;;;;;;5013317;28;20486;-70
2021/12/14 00:16:44;;;;;;;9.73;4.03;;;10.50;98.90;;;;;;5012963;28;20466;-70
2021/12/14 00:19:11;;;;;;;9.90;4.17;;;10.50;98.90;;;;;;5012847;28;20486;-70
2021/12/14 00:21:43;;;;;;;11.17;4.70;;;10.50;98.70;;;;;;5013042;28;20447;-70
2021/12/14 00:24:13;;;;;;;10.10;5.20;;;10.50;98.60;;;;;;5012998;28;20475;-70
2021/12/14 00:26:44;;;;;;;7.70;4.93;;;10.40;98.60;;;;;;5012827;28;20902;-70
2021/12/14 00:29:19;;;;;;;7.53;5.07;;;10.40;98.70;;;;;;5012778;28;21003;-70
2021/12/14 00:31:47;;;;;;;10.13;5.00;;;10.40;98.80;;;;;;5013095;28;20471;-70
2021/12/14 00:34:22;;;;;;;12.87;5.20;;;10.50;99.10;;;;;;5013172;28;20447;-70
2021/12/14 00:36:52;;;;;;;12.40;5.20;;;10.50;99.00;;;;;;5017762;28;20777;-70
2021/12/14 00:39:20;;;;;;;11.43;5.03;;;10.40;98.90;;;;;;5016551;28;20467;-70
2021/12/14 00:41:46;;;;;;;8.20;5.77;;;10.40;99.00;;;;;;5016517;28;20458;-70
2021/12/14 00:44:13;;;;;;;12.97;6.07;;;10.40;99.10;;;;;;5016211;28;20857;-70
2021/12/14 00:46:41;;;;;;;8.60;5.00;;;10.40;99.10;;;;;;5016198;28;20945;-70
2021/12/14 00:49:10;;;;;;;14.87;5.63;;;10.40;99.10;;;;;;5019589;28;20470;-70
2021/12/14 00:51:37;;;;;;;9.87;5.00;;;10.40;99.10;;;;;;5015976;28;21011;-70
2021/12/14 00:54:10;;;;;;;9.50;4.87;;;10.40;99.10;;;;;;5016979;28;20443;-70
2021/12/14 00:56:37;;;;;;;11.47;4.87;;;10.30;99.10;;;;;;5016388;28;20801;-70
2021/12/14 00:59:06;;;;;;;10.87;3.97;;;10.30;99.20;;;;;;5016359;28;20468;-71
2021/12/14 01:01:41;;;;;;;9.80;4.90;;;10.30;99.30;;;;;;5016494;28;20494;-70
2021/12/14 01:04:11;;;;;;;13.77;5.83;;;10.30;99.30;;;;;;5016382;28;20438;-70
2021/12/14 01:06:45;;;;;;;11.70;4.50;;;10.30;99.30;;;;;;5016072;28;20451;-70
2021/12/14 01:09:21;;;;;;;9.97;6.30;;;10.30;99.40;;;;;;5016051;28;20501;-70
2021/12/14 01:11:49;;;;;;;11.83;5.40;;;10.30;99.50;;;;;;5015995;28;20467;-70
2021/12/14 01:14:24;;;;;;;8.47;4.70;;;10.30;99.60;;;;;;5015946;28;20509;-70
2021/12/14 01:17:08;;;;;;;10.73;4.80;;;10.30;99.70;;;;;;5016024;28;20510;-70
2021/12/14 01:19:37;;;;;;;6.77;4.37;;;10.30;99.80;;;;;;5015569;28;20479;-70
2021/12/14 01:25:03;;;;;;;8.97;5.23;;;10.30;99.80;;;;;;5012125;28;20506;-70
2021/12/14 01:27:34;;;;;;;7.50;5.10;;;10.30;99.60;;;;;;5015938;28;20893;-70
2021/12/14 01:30:05;;;;;;;7.37;5.97;;;10.20;99.30;;;;;;5015568;28;20969;-70
2021/12/14 01:32:35;;;;;;;7.60;4.97;;;10.20;99.50;;;;;;5015472;28;20984;-70
2021/12/14 01:35:03;;;;;;;7.60;5.10;;;10.00;99.90;;;;;;5015670;28;20455;-70
2021/12/14 01:37:40;;;;;;;12.13;6.30;;;9.90;99.90;;;;;;5015264;28;20499;-70
2021/12/14 01:40:18;;;;;;;7.93;5.60;;;9.90;99.90;;;;;;5015377;28;20558;-70
2021/12/14 01:42:52;;;;;;;6.63;5.93;;;10.00;99.90;;;;;;5015627;28;20431;-70
2021/12/14 01:45:23;;;;;;;6.50;5.43;;;10.00;99.90;;;;;;5015580;28;20432;-70
2021/12/14 01:47:53;;;;;;;10.00;7.10;;;10.00;99.90;;;;;;5014681;28;20431;-70
2021/12/14 01:50:23;;;;;;;13.00;7.40;;;9.90;99.90;;;;;;5015259;28;20494;-70
2021/12/14 01:52:50;;;;;;;9.90;8.03;;;9.80;99.90;;;;;;5015260;28;20833;-70
2021/12/14 01:55:22;;;;;;;12.33;7.90;;;9.80;99.90;;;;;;5015465;28;20470;-70
2021/12/14 01:57:49;;;;;;;11.47;7.90;;;9.70;99.90;;;;;;5015254;28;20450;-70
2021/12/14 02:00:20;;;;;;;10.90;7.27;;;9.70;99.90;;;;;;5015206;28;20459;-70
2021/12/14 02:02:48;;;;;;;9.47;6.80;;;9.70;99.90;;;;;;5015160;28;20465;-70
2021/12/14 02:05:20;;;;;;;8.77;6.90;;;9.70;99.90;;;;;;5014957;28;20443;-70
2021/12/14 02:07:48;;;;;;;10.03;7.87;;;9.80;99.90;;;;;;5014993;28;20432;-70
2021/12/14 02:10:22;;;;;;;9.97;6.83;;;9.80;99.90;;;;;;5014618;28;20474;-70
2021/12/14 02:12:49;;;;;;;9.97;7.20;;;9.80;99.90;;;;;;5015090;28;20478;-70
2021/12/14 02:15:21;;;;;;;11.20;8.20;;;9.80;99.90;;;;;;5014838;28;20447;-70
2021/12/14 02:17:49;;;;;;;10.30;7.67;;;9.70;99.90;;;;;;5014567;28;20458;-70
2021/12/14 02:20:26;;;;;;;10.87;7.50;;;9.70;99.90;;;;;;5014787;28;20483;-70
2021/12/14 02:22:54;;;;;;;8.93;7.47;;;9.70;99.90;;;;;;5014775;28;20431;-70
2021/12/14 02:25:21;;;;;;;9.33;7.87;;;9.70;99.90;;;;;;5014650;28;20454;-70
2021/12/14 02:27:51;;;;;;;13.20;9.90;;;9.60;99.90;;;;;;5014636;28;20447;-70
2021/12/14 02:30:23;;;;;;;12.43;7.73;;;9.60;99.90;;;;;;5014619;28;20471;-70
2021/12/14 02:32:50;;;;;;;17.60;8.23;;;9.60;99.90;;;;;;5014515;28;20468;-70
2021/12/14 02:35:21;;;;;;;15.50;8.67;;;9.70;99.90;;;;;;5014479;28;20455;-70
2021/12/14 02:37:52;;;;;;;11.03;7.87;;;9.70;99.90;;;;;;5014478;28;20846;-70
2021/12/14 02:40:32;;;;;;;12.07;10.03;;;9.80;99.90;;;;;;5014353;28;20464;-70
2021/12/14 02:43:01;;;;;;;14.40;9.53;;;9.80;99.90;;;;;;5014422;28;20436;-70
2021/12/14 02:45:28;;;;;;;15.00;10.27;;;9.80;99.90;;;;;;5014319;28;20450;-70
2021/12/14 02:47:56;;;;;;;18.97;10.17;;;9.80;99.90;;;;;;5014263;28;20443;-70
2021/12/14 02:50:25;;;;;;;15.43;10.43;;;9.90;99.90;;;;;;5014164;28;20490;-70
2021/12/14 02:52:52;;;;;;;15.00;10.30;;;9.90;99.90;;;;;;5013817;28;20992;-70
2021/12/14 02:55:23;;;;;;;16.33;10.90;;;9.80;99.90;;;;;;5014188;28;20454;-70
2021/12/14 02:57:52;;;;;;;17.87;11.23;;;9.70;99.90;;;;;;5014110;28;20482;-70
2021/12/14 03:00:22;;;;;;;16.77;10.70;;;9.70;99.90;;;;;;5014007;28;20475;-70
2021/12/14 03:02:49;;;;;;;15.80;10.90;;;9.70;99.90;;;;;;5014323;28;20435;-70
2021/12/14 03:05:20;;;;;;;14.77;10.57;;;9.70;99.90;;;;;;5013980;28;20447;-70
2021/12/14 03:07:52;;;;;;;15.97;10.30;;;9.70;99.90;;;;;;5013987;28;20428;-70
2021/12/14 03:10:35;;;;;;;12.77;9.60;;;9.70;99.90;;;;;;5013902;28;20467;-70
2021/12/14 03:13:05;;;;;;;14.07;9.17;;;9.70;99.90;;;;;;5013605;28;20965;-70
2021/12/14 03:15:36;;;;;;;14.37;9.63;;;9.70;99.90;;;;;;5014124;28;20506;-70
2021/12/14 03:18:08;;;;;;;16.40;9.40;;;9.70;99.90;;;;;;5013954;28;20493;-70
2021/12/14 03:20:38;;;;;;;19.13;11.30;;;9.80;99.90;;;;;;5013738;28;20459;-70
2021/12/14 03:23:08;;;;;;;16.20;11.07;;;9.80;99.90;;;;;;5013927;28;20439;-70
2021/12/14 03:25:41;;;;;;;18.77;10.73;;;9.80;99.90;;;;;;5013811;28;20439;-70
2021/12/14 03:28:08;;;;;;;17.53;10.90;;;9.80;99.90;;;;;;5013855;28;20454;-70
2021/12/14 03:30:40;;;;;;;15.73;11.87;;;9.80;99.90;;;;;;5013707;28;20447;-70
2021/12/14 03:33:12;;;;;;;24.23;13.33;;;9.70;99.90;;;;;;5013677;28;20469;-70
2021/12/14 03:35:42;;;;;;;21.77;13.03;;;9.80;99.90;;;;;;5013428;28;20551;-70
2021/12/14 03:38:13;;;;;;;21.20;13.00;;;9.70;99.90;;;;;;5013565;28;20450;-71
2021/12/14 03:40:41;;;;;;;16.03;11.87;;;9.70;99.90;;;;;;5013756;28;20431;-70
2021/12/14 03:43:08;;;;;;;17.63;12.03;;;9.70;99.90;;;;;;5013463;28;20941;-70
2021/12/14 03:45:35;;;;;;;18.27;13.50;;;9.60;99.90;;;;;;5013381;28;20451;-70
2021/12/14 03:48:03;;;;;;;17.77;13.20;;;9.70;99.90;;;;;;5014349;28;20447;-70
2021/12/14 03:50:35;;;;;;;17.40;12.00;;;9.70;99.90;;;;;;5013426;28;20467;-70
2021/12/14 03:53:02;;;;;;;19.40;13.50;;;9.70;99.90;;;;;;5013450;28;20522;-70
2021/12/14 03:55:34;;;;;;;18.30;13.63;;;9.60;99.90;;;;;;5013519;28;20443;-70
2021/12/14 03:58:07;;;;;;;17.60;12.10;;;9.60;99.90;;;;;;5013303;28;20438;-70
2021/12/14 04:00:37;;;;;;;20.10;14.47;;;9.50;99.90;;;;;;5013476;28;20775;-70
2021/12/14 04:03:09;;;;;;;19.97;13.40;;;9.50;99.90;;;;;;5013397;28;20443;-70
2021/12/14 04:05:36;;;;;;;24.00;13.60;;;9.40;99.90;;;;;;5013145;28;20443;-70
2021/12/14 04:08:04;;;;;;;21.40;14.40;;;9.40;99.90;;;;;;5013389;28;20816;-70
2021/12/14 04:10:34;;;;;;;21.80;13.73;;;9.40;99.90;;;;;;5014916;28;20470;-70
2021/12/14 04:13:03;;;;;;;21.70;13.50;;;9.40;99.90;;;;;;5017289;28;20487;-70
2021/12/14 04:15:30;;;;;;;20.73;13.67;;;9.40;99.90;;;;;;5017057;28;20945;-70
2021/12/14 04:17:58;;;;;;;18.00;12.60;;;9.30;99.90;;;;;;5017372;28;20474;-70
2021/12/14 04:20:28;;;;;;;21.80;14.17;;;9.40;99.90;;;;;;5016799;28;20479;-70
2021/12/14 04:22:56;;;;;;;21.20;14.50;;;9.40;99.90;;;;;;5016720;28;20906;-70
2021/12/14 04:25:26;;;;;;;20.87;13.77;;;9.40;99.90;;;;;;5016904;28;20505;-70
2021/12/14 04:27:54;;;;;;;20.40;13.73;;;9.40;99.90;;;;;;5016931;28;20435;-70
2021/12/14 04:30:25;;;;;;;21.57;14.80;;;9.40;99.90;;;;;;5017801;28;20482;-70
2021/12/14 04:32:55;;;;;;;22.20;14.60;;;9.30;99.90;;;;;;5016444;28;20973;-70
2021/12/14 04:35:22;;;;;;;24.03;14.47;;;9.30;99.90;;;;;;5016793;28;20431;-70
2021/12/14 04:37:50;;;;;;;22.53;14.10;;;9.20;99.90;;;;;;5016717;28;20454;-70
2021/12/14 04:40:36;;;;;;;25.67;14.70;;;9.20;99.90;;;;;;5016562;28;20474;-70
2021/12/14 04:54:07;;;;;;;21.07;14.07;;;9.20;99.90;;;;;;5016445;28;20481;-70
2021/12/14 04:56:37;;;;;;;21.10;14.90;;;9.20;99.90;;;;;;5016388;28;20455;-70
2021/12/14 04:59:10;;;;;;;22.73;15.13;;;9.20;99.90;;;;;;5016229;28;20565;-70
2021/12/14 05:01:41;;;;;;;24.33;14.77;;;9.10;99.90;;;;;;5016312;28;20432;-70
2021/12/14 05:04:11;;;;;;;21.80;14.50;;;9.10;99.90;;;;;;5016292;28;20436;-70
2021/12/14 05:06:48;;;;;;;30.97;15.83;;;9.10;99.90;;;;;;5016175;28;20430;-70
2021/12/14 05:09:21;;;;;;;22.40;13.40;;;9.10;99.90;;;;;;5016113;28;20485;-70
2021/12/14 05:11:48;;;;;;;24.37;14.50;;;9.00;99.90;;;;;;5016191;28;20838;-70
2021/12/14 05:14:15;;;;;;;20.00;13.43;;;9.00;99.90;;;;;;5015646;28;20888;-70
2021/12/14 05:16:43;;;;;;;19.50;13.13;;;9.00;99.90;;;;;;5016410;28;20448;-70
2021/12/14 05:19:12;;;;;;;20.10;12.80;;;9.00;99.90;;;;;;5015472;28;20491;-70
2021/12/14 05:21:42;;;;;;;22.63;14.70;;;9.00;99.90;;;;;;5014748;28;20483;-70
2021/12/14 05:24:11;;;;;;;24.37;15.13;;;8.90;99.90;;;;;;5015839;28;20446;-70
2021/12/14 05:26:38;;;;;;;22.30;14.20;;;8.90;99.90;;;;;;5015775;28;20443;-70
2021/12/14 05:29:07;;;;;;;24.80;16.43;;;8.90;99.90;;;;;;5015738;28;20470;-69
2021/12/14 05:31:34;;;;;;;23.97;14.53;;;8.90;99.90;;;;;;5015796;28;20475;-69
2021/12/14 05:34:03;;;;;;;20.87;13.63;;;8.90;99.90;;;;;;5015936;28;20541;-69
2021/12/14 05:36:29;;;;;;;21.47;13.90;;;8.90;99.90;;;;;;5015513;28;20464;-69
2021/12/14 05:39:01;;;;;;;25.33;14.20;;;9.00;99.90;;;;;;5015466;28;20463;-69
2021/12/14 05:44:17;;;;;;;17.03;11.60;;;8.90;99.90;;;;;;5015276;28;20403;-69
2021/12/14 05:46:50;;;;;;;18.67;12.70;;;8.90;99.90;;;;;;5015077;28;20945;-69
2021/12/14 05:49:21;;;;;;;16.80;12.33;;;9.00;99.90;;;;;;5015066;28;20839;-69
2021/12/14 05:51:50;;;;;;;21.83;13.30;;;9.00;99.90;;;;;;5015403;28;20443;-69
2021/12/14 05:54:20;;;;;;;16.33;12.20;;;9.00;99.90;;;;;;5015234;28;20487;-69
2021/12/14 05:56:48;;;;;;;16.77;11.70;;;9.10;99.90;;;;;;5015224;28;20460;-69
2021/12/14 05:59:18;;;;;;;17.77;12.70;;;9.10;99.90;;;;;;5015118;28;20470;-69
2021/12/14 06:01:45;;;;;;;15.20;12.30;;;9.20;99.90;;;;;;5015101;28;20451;-69
2021/12/14 06:04:12;;;;;;;19.10;13.27;;;9.20;99.90;;;;;;5014820;28;20447;-69
2021/12/14 06:06:43;;;;;;;17.43;12.60;;;9.20;99.90;;;;;;5015055;28;20450;-69
2021/12/14 06:09:13;;;;;;;15.67;11.37;;;9.20;99.90;;;;;;5014949;28;20467;-69
2021/12/14 06:11:41;;;;;;;14.83;11.77;;;9.10;99.90;;;;;;5015256;28;20946;-69
2021/12/14 06:14:14;;;;;;;16.17;11.73;;;9.10;99.90;;;;;;5014503;28;21000;-69
2021/12/14 06:16:41;;;;;;;20.60;12.80;;;9.10;99.90;;;;;;5014913;28;20428;-69
2021/12/14 06:19:19;;;;;;;18.77;12.90;;;9.00;99.90;;;;;;5014877;28;20475;-69
2021/12/14 06:21:54;;;;;;;23.00;14.30;;;9.00;99.90;;;;;;5015061;28;20438;-69
2021/12/14 06:24:24;;;;;;;18.87;13.50;;;8.90;99.90;;;;;;5014423;28;20435;-69
2021/12/14 06:26:53;;;;;;;17.57;12.20;;;8.90;99.90;;;;;;5014584;28;20451;-69
2021/12/14 06:29:22;;;;;;;17.03;12.70;;;9.00;99.90;;;;;;5014565;28;20475;-69
2021/12/14 06:31:49;;;;;;;17.60;12.67;;;9.00;99.90;;;;;;5014629;28;20447;-69
2021/12/14 06:34:21;;;;;;;20.03;14.27;;;9.00;99.90;;;;;;5014144;28;20487;-69
2021/12/14 06:38:05;;;;;;;19.17;12.73;;;8.90;99.90;;;;;;5014418;28;20436;-69
2021/12/14 06:40:34;;;;;;;17.30;12.93;;;8.90;99.90;;;;;;5013970;28;20517;-69
2021/12/14 06:43:04;;;;;;;20.63;13.63;;;8.90;99.90;;;;;;5014270;28;20454;-69
2021/12/14 06:45:34;;;;;;;18.70;12.47;;;8.90;99.90;;;;;;5014481;28;20530;-70
2021/12/14 06:48:05;;;;;;;18.10;13.27;;;8.90;99.90;;;;;;5014238;28;20459;-69
2021/12/14 06:50:37;;;;;;;17.20;12.07;;;8.90;99.90;;;;;;5013844;28;20474;-69
2021/12/14 06:53:09;;;;;;;17.90;12.30;;;8.90;99.90;;;;;;5014463;28;20455;-69
2021/12/14 06:55:37;;;;;;;16.23;12.60;;;9.00;99.90;;;;;;5014250;28;20431;-69
2021/12/14 06:58:14;;;;;;;16.83;12.73;;;9.00;99.90;;;;;;5014104;28;20454;-69
2021/12/14 07:00:44;;;;;;;13.00;11.00;;;9.00;99.90;;;;;;5014283;28;20435;-69
2021/12/14 07:03:11;;;;;;;14.73;10.77;;;9.10;99.90;;;;;;5014013;28;20428;-69
2021/12/14 07:05:40;;;;;;;14.33;11.43;;;9.10;99.90;;;;;;5013871;28;20444;-69
2021/12/14 07:08:15;;;;;;;17.23;12.27;;;9.10;99.90;;;;;;5013878;28;20454;-70
2021/12/14 07:10:44;;;;;;;16.40;11.43;;;9.00;99.90;;;;;;5014645;28;20431;-69
2021/12/14 07:13:14;;;;;;;16.07;11.93;;;9.00;99.90;;;;;;5013405;28;20483;-69
2021/12/14 07:15:42;;;;;;;13.63;10.80;;;9.00;99.90;;;;;;5013907;28;20439;-69
2021/12/14 07:18:09;;;;;;;13.80;10.77;;;9.10;99.90;;;;;;5013507;28;20503;-69
2021/12/14 07:20:40;;;;;;;17.47;12.30;;;9.00;99.90;;;;;;5014014;28;20479;-69
2021/12/14 07:23:21;;;;;;;17.90;11.33;;;9.10;99.90;;;;;;5013748;28;20490;-69
2021/12/14 07:25:54;;;;;;;16.30;11.67;;;9.10;99.90;;;;;;5013460;28;20936;-69
2021/12/14 07:28:21;;;;;;;17.50;10.27;;;9.10;99.90;;;;;;5013746;28;20423;-70
2021/12/14 07:30:50;;;;;;;15.73;11.00;;;9.10;99.90;;;;;;5013625;28;20454;-69
2021/12/14 07:33:19;;;;;;;15.67;11.37;;;9.10;99.90;;;;;;5013539;28;20487;-70
2021/12/14 07:35:51;;;;;;;12.07;9.50;;;9.10;99.90;;;;;;5013746;28;20448;-69
2021/12/14 07:38:28;;;;;;;15.83;11.40;;;9.00;99.90;;;;;;5013509;28;20514;-70
2021/12/14 07:40:58;;;;;;;13.67;10.87;;;8.90;99.90;;;;;;5013605;28;20435;-69
2021/12/14 07:43:27;;;;;;;12.73;9.40;;;8.90;99.90;;;;;;5013621;28;20432;-69
2021/12/14 07:45:56;;;;;;;16.80;12.23;;;8.90;99.90;;;;;;5015868;28;20439;-69
2021/12/14 07:48:40;;;;;;;13.80;10.87;;;8.90;99.90;;;;;;5017509;28;20447;-70
2021/12/14 07:51:08;;;;;;;16.50;11.83;;;9.00;99.90;;;;;;5017278;28;20928;-69
2021/12/14 07:53:40;;;;;;;13.90;9.43;;;9.00;99.90;;;;;;5017359;28;20890;-69
2021/12/14 07:56:08;;;;;;;13.90;9.70;;;9.00;99.90;;;;;;5017387;28;20427;-70
2021/12/14 07:58:38;;;;;;;13.30;9.43;;;9.00;99.90;;;;;;5017285;28;20488;-70
2021/12/14 08:01:06;;;;;;;13.43;10.37;;;9.10;99.90;;;;;;5017387;28;20453;-70
2021/12/14 08:03:33;;;;;;;13.40;9.10;;;9.10;99.90;;;;;;5017232;28;20789;-70
2021/12/14 08:06:04;;;;;;;14.03;9.33;;;9.10;99.90;;;;;;5016882;28;20945;-70
2021/12/14 08:08:41;;;;;;;17.60;9.57;;;9.10;99.90;;;;;;5017206;28;20886;-70
2021/12/14 08:11:47;;;;;;;15.00;9.80;;;9.00;99.90;;;;;;5017237;28;20430;-70
2021/12/14 08:14:22;;;;;;;17.33;11.23;;;9.00;99.90;;;;;;5016953;28;20847;-70
2021/12/14 08:16:53;;;;;;;13.60;9.77;;;9.00;99.90;;;;;;5016765;28;20435;-70
2021/12/14 08:19:31;;;;;;;14.60;9.93;;;9.00;99.90;;;;;;5016606;28;20498;-70
2021/12/14 08:22:00;;;;;;;13.27;9.50;;;9.10;99.90;;;;;;5016959;28;20427;-70
2021/12/14 08:24:26;;;;;;;14.73;10.03;;;9.10;99.90;;;;;;5016823;28;20443;-70
2021/12/14 08:26:58;;;;;;;13.90;10.20;;;9.10;99.90;;;;;;5016876;28;20452;-69
2021/12/14 08:29:27;;;;;;;16.50;11.43;;;9.10;99.90;;;;;;5016860;28;20463;-70
2021/12/14 08:31:57;;;;;;;12.93;9.77;;;9.10;99.90;;;;;;5016648;28;20450;-70
2021/12/14 08:34:26;;;;;;;15.30;10.03;;;9.20;99.90;;;;;;5016724;28;20471;-70
2021/12/14 08:37:00;;;;;;;15.70;10.37;;;9.30;99.90;;;;;;5016706;28;20450;-69
2021/12/14 08:39:30;;;;;;;15.67;10.23;;;9.30;99.90;;;;;;5016717;28;20471;-69
2021/12/14 08:42:11;;;;;;;17.17;10.70;;;9.20;99.90;;;;;;5016751;28;20440;-69
2021/12/14 08:44:40;;;;;;;14.07;9.40;;;9.20;99.90;;;;;;5016632;28;20435;-70
2021/12/14 08:47:13;;;;;;;14.40;11.10;;;9.30;99.90;;;;;;5016275;28;20937;-70
2021/12/14 08:49:42;;;;;;;16.60;10.30;;;9.20;99.90;;;;;;5016153;28;20965;-70
2021/12/14 08:52:09;;;;;;;12.17;9.40;;;9.30;99.90;;;;;;5016679;28;20451;-69
2021/12/14 08:54:37;;;;;;;16.40;11.00;;;9.30;99.90;;;;;;5016557;28;20482;-69
2021/12/14 08:57:09;;;;;;;13.70;9.83;;;9.40;99.90;;;;;;5016343;28;20474;-69
2021/12/14 08:59:36;;;;;;;15.23;9.87;;;9.40;99.90;;;;;;5016312;28;20499;-69
2021/12/14 09:02:06;;;;;;;14.37;10.40;;;9.40;99.90;;;;;;5016413;28;20477;-69
2021/12/14 09:04:37;;;;;;;14.40;10.67;;;9.40;99.90;;;;;;5015891;28;20547;-69
2021/12/14 09:07:08;;;;;;;20.23;12.50;;;9.40;99.90;;;;;;5016655;28;20436;-69
2021/12/14 09:09:36;;;;;;;14.00;9.83;;;9.40;99.90;;;;;;5016123;28;20467;-69
2021/12/14 09:12:09;;;;;;;13.63;9.67;;;9.40;99.90;;;;;;5016075;28;20788;-69
2021/12/14 09:14:36;;;;;;;19.43;11.13;;;9.40;99.90;;;;;;5016047;28;20467;-69
2021/12/14 09:17:04;;;;;;;14.83;11.00;;;9.40;99.90;;;;;;5015594;28;20956;-69
2021/12/14 09:19:35;;;;;;;15.83;11.53;;;9.40;99.90;;;;;;5015398;28;20483;-70
2021/12/14 09:22:05;;;;;;;13.33;9.83;;;9.40;99.90;;;;;;5015561;28;20839;-69
2021/12/14 09:24:33;;;;;;;17.07;11.70;;;9.40;99.90;;;;;;5015651;28;20952;-70
2021/12/14 09:27:05;;;;;;;16.90;11.30;;;9.40;99.90;;;;;;5015804;28;20448;-69
2021/12/14 09:29:34;;;;;;;13.30;10.30;;;9.40;99.90;;;;;;5015648;28;20885;-70
2021/12/14 09:32:05;;;;;;;15.67;10.27;;;9.30;99.90;;;;;;5015643;28;20451;-70
2021/12/14 09:34:37;;;;;;;17.30;10.50;;;9.30;99.90;;;;;;5015583;28;20475;-69
2021/12/14 09:37:07;;;;;;;13.83;9.23;;;9.30;99.90;;;;;;5015619;28;20435;-69
2021/12/14 09:39:38;;;;;;;17.10;10.13;;;9.30;99.90;;;;;;5015824;28;20471;-70
2021/12/14 09:42:10;;;;;;;14.93;10.33;;;9.30;99.90;;;;;;5015460;28;20428;-69
2021/12/14 09:44:39;;;;;;;16.10;10.23;;;9.40;99.90;;;;;;5015465;28;20455;-69
2021/12/14 09:47:10;;;;;;;17.33;9.83;;;9.50;99.90;;;;;;5015403;28;20443;-70
2021/12/14 09:49:37;;;;;;;13.77;10.00;;;9.50;99.90;;;;;;5015040;28;20467;-70
2021/12/14 09:52:08;;;;;;;14.27;9.67;;;9.50;99.90;;;;;;5015322;28;20443;-70
2021/12/14 09:54:36;;;;;;;14.03;9.80;;;9.50;99.90;;;;;;5014921;28;20964;-70
2021/12/14 09:57:07;;;;;;;15.20;11.47;;;9.50;99.90;;;;;;5015223;28;20448;-69
2021/12/14 09:59:34;;;;;;;16.87;9.87;;;9.60;99.90;;;;;;5015152;28;20474;-69
2021/12/14 10:02:06;;;;;;;14.03;10.27;;;9.50;99.90;;;;;;5015126;28;20497;-69
2021/12/14 10:04:37;;;;;;;15.57;10.60;;;9.50;99.90;;;;;;5015108;28;20432;-69
2021/12/14 10:07:05;;;;;;;13.97;10.30;;;9.50;99.90;;;;;;5014660;28;20902;-70
2021/12/14 10:09:39;;;;;;;15.53;9.80;;;9.50;99.90;;;;;;5014444;28;20474;-70
2021/12/14 10:12:19;;;;;;;14.97;9.90;;;9.40;99.90;;;;;;5014900;28;20455;-70
2021/12/14 10:14:50;;;;;;;15.00;9.03;;;9.40;99.90;;;;;;5014835;28;20470;-69
2021/12/14 10:17:21;;;;;;;15.20;10.73;;;9.50;99.90;;;;;;5014549;28;20898;-69
2021/12/14 10:19:49;;;;;;;15.27;9.60;;;9.40;99.90;;;;;;5014491;28;20478;-69
2021/12/14 10:22:23;;;;;;;14.60;9.37;;;9.50;99.90;;;;;;5014770;28;20451;-69
2021/12/14 10:24:51;;;;;;;16.73;10.93;;;9.40;99.90;;;;;;5014909;28;20428;-69
2021/12/14 10:27:21;;;;;;;14.33;10.50;;;9.50;99.90;;;;;;5014679;28;20450;-70
2021/12/14 10:29:48;;;;;;;13.87;9.40;;;9.50;99.90;;;;;;5014659;28;20517;-70
2021/12/14 10:32:20;;;;;;;13.90;10.10;;;9.50;99.90;;;;;;5014284;28;20949;-69
2021/12/14 10:34:50;;;;;;;16.17;12.07;;;9.50;99.90;;;;;;5014614;28;20471;-69
2021/12/14 10:37:24;;;;;;;13.67;10.03;;;9.50;99.90;;;;;;5014556;28;20438;-69
2021/12/14 10:45:20;;;;;;;15.87;9.90;;;9.60;99.90;;;;;;5012501;28;20847;-69
2021/12/14 10:47:48;;;;;;;18.50;11.13;;;9.60;99.90;;;;;;5014480;28;20453;-69
2021/12/14 10:50:20;;;;;;;16.03;10.57;;;9.60;99.90;;;;;;5014076;28;20976;-70
2021/12/14 10:52:47;;;;;;;15.53;9.70;;;9.60;99.90;;;;;;5014310;28;20428;-69
2021/12/14 10:55:18;;;;;;;14.07;9.90;;;9.70;99.90;;;;;;5014167;28;20494;-69
2021/12/14 10:57:46;;;;;;;17.00;10.47;;;9.80;99.90;;;;;;5014746;28;20439;-70
2021/12/14 11:00:18;;;;;;;14.70;10.77;;;9.80;99.90;;;;;;5014098;28;20518;-70
2021/12/14 11:02:45;;;;;;;16.00;10.17;;;9.80;99.90;;;;;;5014052;28;20428;-70
2021/12/14 11:05:18;;;;;;;14.93;10.90;;;9.90;99.90;;;;;;5014028;28;20452;-70
2021/12/14 11:07:48;;;;;;;15.47;10.63;;;10.00;99.90;;;;;;5014006;28;20526;-70
2021/12/14 11:10:17;;;;;;;14.33;10.20;;;10.00;99.90;;;;;;5013595;28;20974;-70
2021/12/14 11:12:47;;;;;;;17.87;10.37;;;10.10;99.90;;;;;;5013896;28;20447;-70
2021/12/14 11:15:17;;;;;;;15.43;10.33;;;10.10;99.90;;;;;;5013674;28;20483;-70
2021/12/14 11:20:40;;;;;;;13.60;10.30;;;10.10;99.90;;;;;;5012613;28;20900;-70
2021/12/14 11:23:10;;;;;;;17.23;11.60;;;10.00;99.90;;;;;;5013893;28;20507;-70
2021/12/14 11:25:44;;;;;;;14.43;10.40;;;9.90;99.90;;;;;;5013710;28;20450;-70
2021/12/14 11:28:14;;;;;;;14.73;10.60;;;9.90;99.90;;;;;;5013537;28;20897;-70
2021/12/14 11:30:47;;;;;;;17.47;12.30;;;9.90;99.90;;;;;;5013681;28;20457;-70
2021/12/14 11:33:18;;;;;;;15.53;10.70;;;9.80;99.90;;;;;;5013380;28;20906;-70
2021/12/14 11:35:50;;;;;;;19.47;12.80;;;9.80;99.90;;;;;;5013510;28;20468;-70
2021/12/14 11:38:27;;;;;;;17.43;12.63;;;9.90;99.90;;;;;;5013313;28;20902;-70
2021/12/14 11:40:54;;;;;;;16.50;11.87;;;9.80;99.90;;;;;;5013489;28;20431;-70
2021/12/14 11:43:26;;;;;;;18.50;12.27;;;9.80;99.90;;;;;;5013569;28;20442;-70
2021/12/14 11:45:52;;;;;;;16.77;12.30;;;9.90;99.90;;;;;;5013580;28;20428;-70
2021/12/14 11:48:30;;;;;;;20.97;12.53;;;9.80;99.90;;;;;;5013530;28;20451;-71
2021/12/14 11:51:03;;;;;;;16.37;11.27;;;9.90;99.90;;;;;;5013484;28;20446;-70
2021/12/14 11:53:30;;;;;;;18.10;12.87;;;9.90;99.90;;;;;;5013400;28;20435;-70
2021/12/14 11:56:00;;;;;;;18.70;12.30;;;9.90;99.90;;;;;;5013249;28;20462;-70
2021/12/14 11:58:32;;;;;;;21.13;13.00;;;10.00;99.90;;;;;;5013288;28;20447;-70
2021/12/14 12:01:12;;;;;;;16.87;12.10;;;10.00;99.90;;;;;;5013404;28;20530;-70
2021/12/14 12:03:43;;;;;;;19.13;13.00;;;10.10;99.90;;;;;;5013374;28;20431;-70
2021/12/14 12:06:32;;;;;;;16.03;12.20;;;10.10;99.90;;;;;;5013338;28;20431;-70
2021/12/14 12:11:50;;;;;;;17.37;12.10;;;10.10;99.90;;;;;;5013415;28;20486;-70
2021/12/14 12:14:24;;;;;;;17.20;12.60;;;10.20;99.90;;;;;;5013521;28;20537;-70
2021/12/14 12:16:53;;;;;;;15.17;11.90;;;10.30;99.90;;;;;;5013802;28;20440;-70
2021/12/14 12:19:22;;;;;;;16.43;12.70;;;10.40;99.90;;;;;;5012852;28;20482;-70
2021/12/14 12:21:52;;;;;;;17.60;12.13;;;10.40;99.90;;;;;;5012995;28;20780;-70
2021/12/14 12:24:34;;;;;;;16.73;11.80;;;10.50;99.90;;;;;;5012870;28;20439;-70
2021/12/14 12:28:08;;;;;;;15.10;12.10;;;10.60;99.90;;;;;;5013173;28;20438;-70
2021/12/14 12:31:05;;;;;;;16.47;13.00;;;10.70;99.90;;;;;;4990939;28;20517;-70
2021/12/14 12:33:52;;;;;;;18.20;12.63;;;10.70;99.90;;;;;;5014091;28;20470;-69
2021/12/14 12:36:35;;;;;;;13.83;11.37;;;10.80;99.90;;;;;;5016157;28;20475;-70
2021/12/14 12:39:09;;;;;;;15.70;11.80;;;10.80;99.90;;;;;;5015143;28;20467;-70
2021/12/14 12:41:43;;;;;;;16.20;11.73;;;10.90;99.90;;;;;;5016747;28;20428;-70
2021/12/14 12:44:12;;;;;;;16.93;11.87;;;10.90;99.90;;;;;;5016681;28;20439;-70
2021/12/14 12:46:42;;;;;;;16.07;11.20;;;10.90;99.90;;;;;;5016891;28;20451;-70
2021/12/14 12:49:19;;;;;;;14.67;11.27;;;10.90;99.90;;;;;;5017134;28;20475;-70
2021/12/14 12:51:57;;;;;;;14.63;11.73;;;10.80;99.90;;;;;;5016520;28;20811;-70
2021/12/14 12:54:34;;;;;;;15.40;11.83;;;10.90;99.90;;;;;;5016137;28;20893;-70
2021/12/14 12:57:29;;;;;;;16.77;12.93;;;10.90;99.90;;;;;;5016484;28;20505;-70
2021/12/14 13:00:09;;;;;;;17.97;12.10;;;11.00;99.90;;;;;;5016281;28;20470;-70
2021/12/14 13:02:41;;;;;;;14.93;11.30;;;11.10;99.90;;;;;;5016438;28;20423;-70
2021/12/14 13:05:14;;;;;;;13.67;12.00;;;11.20;99.90;;;;;;5016328;28;20787;-70
2021/12/14 13:07:46;;;;;;;15.07;12.80;;;11.30;99.90;;;;;;5016047;28;20844;-70
2021/12/14 13:10:22;;;;;;;16.90;12.37;;;11.30;99.60;;;;;;5015806;28;20832;-70
2021/12/14 13:12:54;;;;;;;16.87;13.27;;;11.30;99.70;;;;;;5016190;28;20439;-70
2021/12/14 13:16:00;;;;;;;16.33;12.10;;;11.20;99.70;;;;;;5016017;28;20463;-70
2021/12/14 13:18:40;;;;;;;17.83;11.70;;;11.20;99.90;;;;;;5015509;28;20971;-70
2021/12/14 13:21:12;;;;;;;17.43;12.90;;;11.10;99.80;;;;;;5015931;28;20439;-70
2021/12/14 13:23:42;;;;;;;16.60;12.13;;;11.00;99.90;;;;;;5015922;28;20431;-70
2021/12/14 13:26:40;;;;;;;14.60;11.00;;;11.10;99.90;;;;;;5016053;28;20450;-70
2021/12/14 13:29:21;;;;;;;14.70;11.23;;;11.20;99.90;;;;;;5016471;28;20475;-70